Terminal Aerodrome Forecast
Issued by NWS Bismarck, ND

Home | Current Version | Previous Version | Text Only | Print | Product List | Glossary Off
Versions: 1 2 3 4 5 6 7 8 9 10 11 12 13 14 15 16 17 18 19 20 21 22

000
FTUS43 KBIS 301300 AAA
TAFBIS
TAF AMD
KBIS 301301Z 3013/3112 31008KT P6SM FEW010
     FM301430 33012KT P6SM OVC015
      TEMPO 3016/3018 OVC007
     FM301900 36012KT P6SM BKN025 OVC035
     FM302100 01012KT P6SM SCT025 SCT035
     FM310300 05006KT P6SM SKC
     FM310800 12006KT P6SM SKC=

USA.gov is the U.S. government's official web portal to all federal, state and local government web resources and services.